createdAt,value
2022-12-04T00:00:15.786Z,4044.6
2022-12-04T00:05:57.579Z,4044.1
2022-12-04T00:11:35.445Z,4045.8
2022-12-04T00:17:10.980Z,4044.8
2022-12-04T00:23:06.591Z,4046.8
2022-12-04T00:28:45.125Z,4043.1
2022-12-04T00:34:27.548Z,4042.1
2022-12-04T00:40:13.390Z,4043.3
2022-12-04T00:45:49.825Z,4043.5
2022-12-04T00:51:27.622Z,4042.6
2022-12-04T00:57:04.083Z,4043.6
2022-12-04T01:02:48.606Z,4044
2022-12-04T01:08:32.157Z,4043.1
2022-12-04T01:14:07.597Z,4040.1
2022-12-04T01:20:17.379Z,4039.6
2022-12-04T01:25:57.794Z,4044.3
2022-12-04T01:31:35.338Z,4042.6
2022-12-04T01:37:12.060Z,4041.6
2022-12-04T01:42:53.725Z,4041.9
2022-12-04T01:48:50.436Z,4036.4
2022-12-04T01:54:22.864Z,4039.3
2022-12-04T01:59:59.313Z,4036.6
2022-12-04T02:05:35.221Z,4041.1
2022-12-04T02:11:14.459Z,4038.8
2022-12-04T02:16:57.876Z,4038.3
2022-12-04T02:22:34.618Z,4037.6
2022-12-04T02:28:12.428Z,4037.3
2022-12-04T02:34:00.156Z,4036.4
2022-12-04T02:39:35.686Z,4035.7
2022-12-04T02:45:10.990Z,4035.1
2022-12-04T02:50:47.529Z,4033.1
2022-12-04T02:56:25.581Z,4035.9
2022-12-04T03:02:01.581Z,4036.9
2022-12-04T03:07:36.896Z,4033.7
2022-12-04T03:13:15.858Z,4034.1
2022-12-04T03:19:23.005Z,4033.4
2022-12-04T03:25:15.851Z,4035.1
2022-12-04T03:30:54.518Z,4030.7
2022-12-04T03:36:51.450Z,4029.7
2022-12-04T03:42:48.887Z,4031.6
2022-12-04T03:48:46.087Z,4024
2022-12-04T03:54:27.656Z,4028.4
2022-12-04T04:00:19.018Z,4031.7
2022-12-04T04:06:02.746Z,4030.6
2022-12-04T04:11:38.087Z,4028
2022-12-04T04:17:20.698Z,4028.4
2022-12-04T04:23:11.574Z,4028.9
2022-12-04T04:28:48.637Z,4024.2
2022-12-04T04:34:26.776Z,4026.4
2022-12-04T04:40:02.044Z,4025.2
2022-12-04T04:45:39.655Z,4025.9
2022-12-04T04:51:14.748Z,4022.5
2022-12-04T04:56:49.729Z,4018.3
2022-12-04T05:03:04.109Z,4023.2
2022-12-04T05:08:57.725Z,4025.2
2022-12-04T05:14:44.609Z,4025.5
2022-12-04T05:20:41.909Z,4021.5
2022-12-04T05:26:36.339Z,4021
2022-12-04T05:32:16.260Z,4021
2022-12-04T05:37:57.327Z,4019.7
2022-12-04T05:43:32.441Z,4018.5
2022-12-04T05:49:29.202Z,4014.1
2022-12-04T05:55:10.476Z,4018.5
2022-12-04T06:00:53.607Z,4017.5
2022-12-04T06:06:28.452Z,4014.6
2022-12-04T06:12:11.326Z,4015.1
2022-12-04T06:17:55.755Z,4015.6
2022-12-04T06:23:38.441Z,4016.5
2022-12-04T06:29:33.431Z,4015.5
2022-12-04T06:35:08.448Z,4015.3
2022-12-04T06:40:56.808Z,4012.6
2022-12-04T06:46:56.157Z,4011.1
2022-12-04T06:52:28.962Z,4014.5
2022-12-04T06:58:03.939Z,4014.1
2022-12-04T07:03:39.013Z,4013.8
2022-12-04T07:09:13.726Z,4013.5
2022-12-04T07:14:49.390Z,4012.3
2022-12-04T07:20:24.573Z,4016.6
2022-12-04T07:26:44.032Z,4017.7
2022-12-04T07:32:26.173Z,4010.1
2022-12-04T07:38:17.925Z,4022.7
2022-12-04T07:44:04.313Z,4037.8
2022-12-04T07:49:40.953Z,4072.1
2022-12-04T07:55:24.547Z,4167.1
2022-12-04T08:01:34.156Z,4170.9
2022-12-04T08:07:12.657Z,4223.8
2022-12-04T08:12:47.425Z,4170.9
2022-12-04T08:18:30.985Z,4115.6
2022-12-04T08:24:13.528Z,4210.6
2022-12-04T08:29:58.813Z,4216.5
2022-12-04T08:36:03.467Z,4095
2022-12-04T08:41:38.716Z,4180.8
2022-12-04T08:47:17.096Z,4196.5
2022-12-04T08:53:07.881Z,4162.5
2022-12-04T08:58:47.062Z,4183.1
2022-12-04T09:04:23.920Z,4169.2
2022-12-04T09:10:47.861Z,4182.3
2022-12-04T09:16:35.641Z,4168.6
2022-12-04T09:22:18.639Z,4154
2022-12-04T09:28:23.112Z,4155.3
2022-12-04T09:34:15.658Z,4158.5
2022-12-04T09:39:57.636Z,4154.8
2022-12-04T09:45:49.747Z,4180.8
2022-12-04T09:51:29.221Z,4162.7
2022-12-04T09:57:17.263Z,4148.6
2022-12-04T10:02:54.344Z,4177.3
2022-12-04T10:08:33.696Z,4162.9
2022-12-04T10:14:23.942Z,4173.3
2022-12-04T10:20:11.167Z,4176.9
2022-12-04T10:25:55.835Z,4177.3
2022-12-04T10:32:03.694Z,4151.2
2022-12-04T10:37:39.330Z,4164.4
2022-12-04T10:43:17.672Z,4167.1
2022-12-04T10:48:56.346Z,4161.2
2022-12-04T10:54:45.288Z,4167.2
2022-12-04T11:00:29.405Z,4171.3
2022-12-04T11:06:21.660Z,4161.2
2022-12-04T11:12:08.069Z,4170.9
2022-12-04T11:17:43.787Z,4170.8
2022-12-04T11:23:19.154Z,4154.2
2022-12-04T11:28:59.880Z,4150.6
2022-12-04T11:34:42.494Z,4151
2022-12-04T11:40:17.981Z,4151.5
2022-12-04T11:45:53.497Z,4175.3
2022-12-04T11:51:37.751Z,4172.9
2022-12-04T11:57:24.016Z,4154.3
2022-12-04T12:03:17.875Z,4164
2022-12-04T12:08:56.919Z,4171.8
2022-12-04T12:14:42.340Z,4157.4
2022-12-04T12:20:17.547Z,4160.9
2022-12-04T12:25:54.467Z,4182.3
2022-12-04T12:31:31.241Z,4166.4
2022-12-04T12:37:06.722Z,4199.7
2022-12-04T12:42:43.406Z,4173.6
2022-12-04T12:48:40.446Z,4177.3
2022-12-04T12:54:15.589Z,4177.3
2022-12-04T12:59:50.992Z,4197.4
2022-12-04T13:05:26.401Z,4206.6
2022-12-04T13:11:09.899Z,4199.4
2022-12-04T13:17:19.798Z,4189.5
2022-12-04T13:23:07.624Z,4185.2
2022-12-04T13:28:45.090Z,4190.2
2022-12-04T13:34:24.297Z,4212.3
2022-12-04T13:40:25.777Z,4184.3
2022-12-04T13:46:02.611Z,4205.8
2022-12-04T13:51:43.556Z,4194.2
2022-12-04T13:57:19.964Z,4201.4
2022-12-04T14:02:58.805Z,4185.3
2022-12-04T14:08:45.459Z,4183
2022-12-04T14:14:31.857Z,4194
2022-12-04T14:20:11.113Z,4174.4
2022-12-04T14:27:12.263Z,4166.1
2022-12-04T14:33:08.182Z,4161.4
2022-12-04T14:39:03.309Z,4163.9
2022-12-04T14:44:41.280Z,4160.5
2022-12-04T14:50:28.778Z,4158.2
2022-12-04T14:56:22.954Z,4160.5
2022-12-04T15:02:04.617Z,4160.2
2022-12-04T15:07:41.294Z,4157.4
2022-12-04T15:13:30.861Z,4155
2022-12-04T15:19:15.270Z,4151
2022-12-04T15:24:56.242Z,4147.8
2022-12-04T15:30:31.598Z,4148
2022-12-04T15:36:29.934Z,4145.8
2022-12-04T15:42:13.048Z,4142.6
2022-12-04T15:48:09.914Z,4139.8
2022-12-04T15:53:42.763Z,4141.3
2022-12-04T15:59:22.871Z,4137.8
2022-12-04T16:05:00.304Z,4139.3
2022-12-04T16:10:35.687Z,4139.1
2022-12-04T16:16:12.053Z,4136.6
2022-12-04T16:21:50.006Z,4135.2
2022-12-04T16:27:24.731Z,4132.6
2022-12-04T16:33:00.466Z,4134.2
2022-12-04T16:38:36.545Z,4136.2
2022-12-04T16:44:15.809Z,4132.1
2022-12-04T16:49:52.030Z,4130.9
2022-12-04T16:55:27.300Z,4129.4
2022-12-04T17:01:09.309Z,4125.7
2022-12-04T17:06:44.990Z,4129.7
2022-12-04T17:13:04.721Z,4126.7
2022-12-04T17:18:50.233Z,4124.2
2022-12-04T17:24:28.745Z,4122
2022-12-04T17:30:19.636Z,4124.7
2022-12-04T17:36:04.153Z,4121.7
2022-12-04T17:41:44.074Z,4118.5
2022-12-04T17:47:41.038Z,4113.3
2022-12-04T17:53:19.777Z,4116.8
2022-12-04T17:58:55.959Z,4117
2022-12-04T18:04:34.426Z,4114.6
2022-12-04T18:10:18.832Z,4119.7
2022-12-04T18:16:21.327Z,4122
2022-12-04T18:22:00.218Z,4116.3
2022-12-04T18:27:43.560Z,4115.8
2022-12-04T18:33:41.265Z,4118.5
2022-12-04T18:39:16.967Z,4120
2022-12-04T18:44:51.832Z,4117
2022-12-04T18:50:54.081Z,4118
2022-12-04T18:56:32.924Z,4118.5
2022-12-04T19:02:09.646Z,4116.5
2022-12-04T19:07:45.703Z,4115.6
2022-12-04T19:13:21.343Z,4116.3
2022-12-04T19:18:56.559Z,4116.5
2022-12-04T19:24:31.583Z,4118.3
2022-12-04T19:30:06.372Z,4117.8
2022-12-04T19:35:41.647Z,4116.3
2022-12-04T19:41:16.685Z,4115.3
2022-12-04T19:46:52.380Z,4116.1
2022-12-04T19:52:31.505Z,4113.6
2022-12-04T19:58:06.817Z,4114.6
2022-12-04T20:03:49.817Z,4114.5
2022-12-04T20:09:30.610Z,4114.3
2022-12-04T20:15:09.676Z,4114
2022-12-04T20:20:44.818Z,4113.1
2022-12-04T20:26:20.347Z,4110.1
2022-12-04T20:31:55.595Z,4109.8
2022-12-04T20:37:31.326Z,4111
2022-12-04T20:43:07.117Z,4109.1
2022-12-04T20:49:03.978Z,4105.3
2022-12-04T20:54:51.826Z,4107.6
2022-12-04T21:01:33.447Z,4106.8
2022-12-04T21:07:12.464Z,4111.3
2022-12-04T21:12:49.924Z,4107.6
2022-12-04T21:18:25.429Z,4105.8
2022-12-04T21:24:00.412Z,4104.1
2022-12-04T21:29:44.382Z,4101.7
2022-12-04T21:35:23.641Z,4102.9
2022-12-04T21:40:58.954Z,4104.6
2022-12-04T21:46:59.314Z,4098.4
2022-12-04T21:52:53.536Z,4102.1
2022-12-04T21:58:28.828Z,4099.2
2022-12-04T22:04:07.989Z,4099.6
2022-12-04T22:09:46.439Z,4103.4
2022-12-04T22:15:21.473Z,4098.9
2022-12-04T22:20:56.404Z,4099.2
2022-12-04T22:26:34.974Z,4098.7
2022-12-04T22:32:10.301Z,4098.4
2022-12-04T22:37:57.786Z,4096.9
2022-12-04T22:43:41.961Z,4100.4
2022-12-04T22:49:38.938Z,4094.7
2022-12-04T22:55:11.921Z,4095.7
2022-12-04T23:00:48.164Z,4096.7
2022-12-04T23:06:22.864Z,4096.5
2022-12-04T23:11:58.147Z,4096.5
2022-12-04T23:17:33.740Z,4095.7
2022-12-04T23:23:30.878Z,4094.9
2022-12-04T23:29:57.914Z,4094.5
2022-12-04T23:35:36.624Z,4097.9
2022-12-04T23:41:29.272Z,4094
2022-12-04T23:47:26.056Z,4086.7
2022-12-04T23:53:09.292Z,4092
2022-12-04T23:58:43.938Z,4091.2
